Finnhawk — OJNL — position and weather

sailwx.info

Track history (hours):
 
Tides and Currents Weather Stations Pressure Air Temp Water Temp Dewpoint Dewpoint Depression Visibility Wind Speed Wind Dir Waves Ship Positions

Finnhawk

Last reported at 2017-Jan-19 21:30 UTC. Time now 2017-Jan-20 08:00 UTC.
Position N 55°37' E 015°20'.

Length 163 m; draft 6.3 m.

Type: Ship. MMSI: 230007000.

Date/timePositionNaut miles runAvg speedWind from/ knotsBaromVisibWave heightAir tempDewpointWater temp
2017-Jan-19 21:30N 55°37' E 015°20'1919.7
2017-Jan-19 20:33N 55°28' E 014°51'1919.0
2017-Jan-19 19:34N 55°15' E 014°27'1919.3
2017-Jan-19 18:33N 55°01' E 014°04'2119.6
2017-Jan-19 17:30N 54°54' E 013°30'1819.6
2017-Jan-19 16:33N 54°48' E 012°59'2418.8
2017-Jan-19 15:17N 54°36' E 012°23'1518.9
2017-Jan-19 14:30N 54°24' E 012°10'1313.5
2017-Jan-19 13:32N 54°11' E 012°06'2 2.1
2017-Jan-19 12:21N 54°08' E 012°06'0 0.0
2017-Jan-19 11:33N 54°08' E 012°06'0 0.0
2017-Jan-19 04:24N 54°08' E 012°06'0 0.0
2017-Jan-19 03:20N 54°08' E 012°06'3 3.3
2017-Jan-19 02:29N 54°11' E 012°05'1313.6
2017-Jan-19 01:33N 54°24' E 012°06'1615.8
2017-Jan-19 00:34N 54°38' E 012°19'5217.2
2017-Jan-18 21:33N 54°60' E 013°40'1716.9
2017-Jan-18 20:33N 55°06' E 014°07'1717.1
2017-Jan-18 19:33N 55°20' E 014°26'1717.3
2017-Jan-18 18:33N 55°31' E 014°49'1717.3
2017-Jan-18 17:33N 55°40' E 015°15'34917.5
2017-Jan-17 21:33N 59°44' E 023°03'6 0.7
2017-Jan-17 13:08N 59°49' E 022°57'2 3.7
2017-Jan-17 12:33N 59°47' E 022°59'1414.0
2017-Jan-17 11:33N 59°34' E 022°53'33718.3
2017-Jan-16 17:07N 55°38' E 015°25'1118.9
2017-Jan-16 16:31N 55°32' E 015°08'1818.8
2017-Jan-16 15:34N 55°23' E 014°40'1918.7
2017-Jan-16 14:32N 55°08' E 014°19'1818.5
2017-Jan-16 13:33N 54°58' E 013°52'3718.3
2017-Jan-16 11:31N 54°46' E 012°51'2317.2
2017-Jan-16 10:12N 54°33' E 012°19'1217.7
2017-Jan-16 09:32N 54°23' E 012°09'15 1.8
2017-Jan-16 01:13N 54°08' E 012°06'0 0.0
2017-Jan-15 22:21N 54°08' E 012°06'4 4.9
2017-Jan-15 21:28N 54°13' E 012°05'1414.5
2017-Jan-15 20:31N 54°26' E 012°10'5717.6
2017-Jan-15 17:17N 54°58' E 013°32'1419.2
2017-Jan-15 16:32N 55°03' E 013°55'1918.7
2017-Jan-15 15:33N 55°15' E 014°20'1919.1
2017-Jan-15 14:33N 55°28' E 014°43'2019.3
2017-Jan-15 13:32N 55°39' E 015°12'34518.9
2017-Jan-14 19:15N 59°39' E 022°55'913.1
2017-Jan-14 18:33N 59°48' E 022°57'0 0.0
2017-Jan-14 08:33N 59°49' E 022°57'1311.7
2017-Jan-14 07:28N 59°36' E 022°56'34318.9
2017-Jan-13 13:18N 55°36' E 015°19'1419.0
2017-Jan-13 12:33N 55°29' E 014°56'1919.0
2017-Jan-13 11:34N 55°17' E 014°31'2019.2
2017-Jan-13 10:32N 55°02' E 014°09'1818.8
2017-Jan-13 09:33N 54°56' E 013°39'1918.6
2017-Jan-13 08:33N 54°50' E 013°08'3717.8
2017-Jan-13 06:29N 54°29' E 012°15'1717.1
2017-Jan-13 05:31N 54°13' E 012°05'5 5.4
2017-Jan-13 04:33N 54°08' E 012°06'0 0.0
2017-Jan-13 01:26N 54°08' E 012°06'0 0.0
2017-Jan-12 19:29N 54°08' E 012°06'0 0.0
2017-Jan-12 17:32N 54°08' E 012°06'3 3.1
2017-Jan-12 16:32N 54°11' E 012°05'1211.7
2017-Jan-12 15:31N 54°23' E 012°07'1111.2
2017-Jan-12 14:33N 54°33' E 012°14'7414.8
2017-Jan-12 09:33N 55°08' E 014°08'1616.2
2017-Jan-12 08:33N 55°20' E 014°27'37412.0
2017-Jan-11 01:28N 59°38' E 022°51'1111.4
2017-Jan-11 00:32N 59°48' E 022°58'1 0.2
2017-Jan-10 15:30N 59°49' E 022°56'1313.4
2017-Jan-10 14:31N 59°36' E 022°58'  
Track history (hours):
 
Tides and Currents Weather Stations Pressure Air Temp Water Temp Dewpoint Dewpoint Depression Visibility Wind Speed Wind Dir Waves Ship Positions

Finnhawk

Last reported at 2017-Jan-19 21:30 UTC. Time now 2017-Jan-20 08:00 UTC.
Position N 55°37' E 015°20'.

Length 163 m; draft 6.3 m.

Type: Ship. MMSI: 230007000.

Date/timePositionNaut miles runAvg speedWind from/ knotsBaromVisibWave heightAir tempDewpointWater temp
2017-Jan-19 21:30N 55°37' E 015°20'1919.7
2017-Jan-19 20:33N 55°28' E 014°51'1919.0
2017-Jan-19 19:34N 55°15' E 014°27'1919.3
2017-Jan-19 18:33N 55°01' E 014°04'2119.6
2017-Jan-19 17:30N 54°54' E 013°30'1819.6
2017-Jan-19 16:33N 54°48' E 012°59'2418.8
2017-Jan-19 15:17N 54°36' E 012°23'1518.9
2017-Jan-19 14:30N 54°24' E 012°10'1313.5
2017-Jan-19 13:32N 54°11' E 012°06'2 2.1
2017-Jan-19 12:21N 54°08' E 012°06'0 0.0
2017-Jan-19 11:33N 54°08' E 012°06'0 0.0
2017-Jan-19 04:24N 54°08' E 012°06'0 0.0
2017-Jan-19 03:20N 54°08' E 012°06'3 3.3
2017-Jan-19 02:29N 54°11' E 012°05'1313.6
2017-Jan-19 01:33N 54°24' E 012°06'1615.8
2017-Jan-19 00:34N 54°38' E 012°19'5217.2
2017-Jan-18 21:33N 54°60' E 013°40'1716.9
2017-Jan-18 20:33N 55°06' E 014°07'1717.1
2017-Jan-18 19:33N 55°20' E 014°26'1717.3
2017-Jan-18 18:33N 55°31' E 014°49'1717.3
2017-Jan-18 17:33N 55°40' E 015°15'34917.5
2017-Jan-17 21:33N 59°44' E 023°03'6 0.7
2017-Jan-17 13:08N 59°49' E 022°57'2 3.7
2017-Jan-17 12:33N 59°47' E 022°59'1414.0
2017-Jan-17 11:33N 59°34' E 022°53'33718.3
2017-Jan-16 17:07N 55°38' E 015°25'1118.9
2017-Jan-16 16:31N 55°32' E 015°08'1818.8
2017-Jan-16 15:34N 55°23' E 014°40'1918.7
2017-Jan-16 14:32N 55°08' E 014°19'1818.5
2017-Jan-16 13:33N 54°58' E 013°52'3718.3
2017-Jan-16 11:31N 54°46' E 012°51'2317.2
2017-Jan-16 10:12N 54°33' E 012°19'1217.7
2017-Jan-16 09:32N 54°23' E 012°09'15 1.8
2017-Jan-16 01:13N 54°08' E 012°06'0 0.0
2017-Jan-15 22:21N 54°08' E 012°06'4 4.9
2017-Jan-15 21:28N 54°13' E 012°05'1414.5
2017-Jan-15 20:31N 54°26' E 012°10'5717.6
2017-Jan-15 17:17N 54°58' E 013°32'1419.2
2017-Jan-15 16:32N 55°03' E 013°55'1918.7
2017-Jan-15 15:33N 55°15' E 014°20'1919.1
2017-Jan-15 14:33N 55°28' E 014°43'2019.3
2017-Jan-15 13:32N 55°39' E 015°12'34518.9
2017-Jan-14 19:15N 59°39' E 022°55'913.1
2017-Jan-14 18:33N 59°48' E 022°57'0 0.0
2017-Jan-14 08:33N 59°49' E 022°57'1311.7
2017-Jan-14 07:28N 59°36' E 022°56'34318.9
2017-Jan-13 13:18N 55°36' E 015°19'1419.0
2017-Jan-13 12:33N 55°29' E 014°56'1919.0
2017-Jan-13 11:34N 55°17' E 014°31'2019.2
2017-Jan-13 10:32N 55°02' E 014°09'1818.8
2017-Jan-13 09:33N 54°56' E 013°39'1918.6
2017-Jan-13 08:33N 54°50' E 013°08'3717.8
2017-Jan-13 06:29N 54°29' E 012°15'1717.1
2017-Jan-13 05:31N 54°13' E 012°05'5 5.4
2017-Jan-13 04:33N 54°08' E 012°06'0 0.0
2017-Jan-13 01:26N 54°08' E 012°06'0 0.0
2017-Jan-12 19:29N 54°08' E 012°06'0 0.0
2017-Jan-12 17:32N 54°08' E 012°06'3 3.1
2017-Jan-12 16:32N 54°11' E 012°05'1211.7
2017-Jan-12 15:31N 54°23' E 012°07'1111.2
2017-Jan-12 14:33N 54°33' E 012°14'7414.8
2017-Jan-12 09:33N 55°08' E 014°08'1616.2
2017-Jan-12 08:33N 55°20' E 014°27'37412.0
2017-Jan-11 01:28N 59°38' E 022°51'1111.4
2017-Jan-11 00:32N 59°48' E 022°58'1 0.2
2017-Jan-10 15:30N 59°49' E 022°56'1313.4
2017-Jan-10 14:31N 59°36' E 022°58'  

Dump ship's entire track history